Time;durP1;ratioP1;P1;durP2;ratioP2;P2;SDS_P1;SDS_P2;PMS_P1;PMS_P2;Temp;Humidity;BMP_temperature;BMP_pressure;BME280_temperature;BME280_humidity;BME280_pressure;Samples;Min_cycle;Max_cycle;Signal;HPM_P1;HPM_P2
2021/05/27 00:02:25;;;;;;;5.47;3.10;;;8.70;97.30;;;;;;4935131;29;20474;-88
2021/05/27 00:04:51;;;;;;;5.47;4.10;;;8.70;97.30;;;;;;4934529;29;20661;-88
2021/05/27 00:07:17;;;;;;;3.80;3.00;;;8.70;97.30;;;;;;4935219;29;20432;-89
2021/05/27 00:09:42;;;;;;;3.67;3.10;;;8.70;97.30;;;;;;4935033;29;20426;-89
2021/05/27 00:12:09;;;;;;;7.37;3.70;;;8.70;97.30;;;;;;4934688;29;20277;-89
2021/05/27 00:14:34;;;;;;;6.03;3.17;;;8.70;97.30;;;;;;4935561;29;20206;-88
2021/05/27 00:17:00;;;;;;;4.93;4.00;;;8.70;97.30;;;;;;4935297;29;20768;-89
2021/05/27 00:19:25;;;;;;;5.57;3.37;;;8.60;97.30;;;;;;4935344;29;20278;-88
2021/05/27 00:21:51;;;;;;;4.70;3.50;;;8.60;97.30;;;;;;4936816;29;20677;-88
2021/05/27 00:24:16;;;;;;;4.13;3.30;;;8.60;97.30;;;;;;4935905;29;20231;-87
2021/05/27 00:26:42;;;;;;;5.30;3.50;;;8.60;97.30;;;;;;4935402;29;20190;-88
2021/05/27 00:29:08;;;;;;;6.33;4.00;;;8.60;97.30;;;;;;4935580;29;20195;-89
2021/05/27 00:31:34;;;;;;;5.83;4.20;;;8.60;97.30;;;;;;4935964;29;20243;-88
2021/05/27 00:34:00;;;;;;;6.23;3.70;;;8.60;97.30;;;;;;4936072;29;20777;-88
2021/05/27 00:36:26;;;;;;;5.13;3.90;;;8.60;97.30;;;;;;4937832;29;20416;-89
2021/05/27 00:38:51;;;;;;;6.03;3.80;;;8.60;97.30;;;;;;4935703;29;20450;-88
2021/05/27 00:41:17;;;;;;;6.20;4.60;;;8.60;97.30;;;;;;4934985;29;20187;-87
2021/05/27 00:43:42;;;;;;;6.67;4.20;;;8.60;97.30;;;;;;4935627;29;20275;-88
2021/05/27 00:46:08;;;;;;;5.17;3.60;;;8.50;97.30;;;;;;4934847;29;20195;-87
2021/05/27 00:51:17;;;;;;;4.70;4.37;;;8.50;97.30;;;;;;4935864;29;20203;-89
2021/05/27 00:53:43;;;;;;;11.90;4.73;;;8.50;97.30;;;;;;4934518;29;20412;-88
2021/05/27 00:56:10;;;;;;;7.83;4.97;;;8.50;97.30;;;;;;4934801;29;20239;-88
2021/05/27 00:59:17;;;;;;;9.80;4.97;;;8.50;97.30;;;;;;4934743;29;20212;-88
2021/05/27 01:01:52;;;;;;;6.47;5.13;;;8.50;97.30;;;;;;4935007;29;20808;-89
2021/05/27 01:04:19;;;;;;;9.83;5.37;;;8.50;97.30;;;;;;4935341;29;20511;-88
2021/05/27 01:06:47;;;;;;;7.40;5.57;;;8.50;97.30;;;;;;4935711;29;20438;-89
2021/05/27 01:09:15;;;;;;;7.67;5.60;;;8.50;97.30;;;;;;4936975;29;20446;-89
2021/05/27 01:11:46;;;;;;;7.00;5.67;;;8.50;97.30;;;;;;4935964;29;20471;-89
2021/05/27 01:17:53;;;;;;;8.23;5.97;;;8.50;97.30;;;;;;4940394;29;20447;-88
2021/05/27 01:20:17;;;;;;;8.37;5.90;;;8.40;97.30;;;;;;4936895;29;20514;-89
2021/05/27 01:22:54;;;;;;;8.50;5.90;;;8.50;97.30;;;;;;4938669;29;20523;-89
2021/05/27 01:25:19;;;;;;;14.50;6.03;;;8.50;97.30;;;;;;4939433;29;20777;-88
2021/05/27 01:27:52;;;;;;;14.13;6.40;;;8.50;97.30;;;;;;4961953;23;20499;-89
2021/05/27 01:30:21;;;;;;;8.90;6.37;;;8.50;97.30;;;;;;4937733;29;20199;-89
2021/05/27 01:32:47;;;;;;;14.97;7.27;;;8.50;97.30;;;;;;4937862;29;20471;-89
2021/05/27 01:35:21;;;;;;;10.50;7.10;;;8.50;97.30;;;;;;4937719;29;20423;-89
2021/05/27 01:37:47;;;;;;;11.17;7.27;;;8.50;97.30;;;;;;4953112;23;20757;-89
2021/05/27 01:40:20;;;;;;;10.07;6.87;;;8.50;97.30;;;;;;4938716;29;20404;-89
2021/05/27 01:42:54;;;;;;;11.33;7.60;;;8.50;97.30;;;;;;4938414;29;20234;-89
2021/05/27 01:45:22;;;;;;;10.03;7.30;;;8.50;97.30;;;;;;4939624;29;20905;-89
2021/05/27 01:47:55;;;;;;;11.17;7.17;;;8.50;97.30;;;;;;4937669;29;20432;-89
2021/05/27 01:50:33;;;;;;;10.00;7.00;;;8.50;97.30;;;;;;4938327;29;20512;-89
2021/05/27 01:53:04;;;;;;;10.47;6.50;;;8.50;97.30;;;;;;4938490;29;20450;-89
2021/05/27 01:55:36;;;;;;;8.60;7.10;;;8.50;97.30;;;;;;4939495;29;20427;-89
2021/05/27 01:58:01;;;;;;;10.10;7.30;;;8.60;97.30;;;;;;4939575;29;20436;-90
2021/05/27 02:00:30;;;;;;;12.63;8.00;;;8.60;97.30;;;;;;4939338;29;20499;-89
2021/05/27 02:02:56;;;;;;;9.23;6.70;;;8.60;97.30;;;;;;4939194;29;20182;-89
2021/05/27 02:05:24;;;;;;;11.53;6.90;;;8.60;97.30;;;;;;4938242;29;20427;-89
2021/05/27 02:08:06;;;;;;;13.63;7.23;;;8.60;97.30;;;;;;4937077;29;20536;-88
2021/05/27 02:10:32;;;;;;;11.53;7.73;;;8.60;97.30;;;;;;4937042;29;20845;-89
2021/05/27 02:13:02;;;;;;;11.30;7.20;;;8.60;97.30;;;;;;4937400;29;20443;-88
2021/05/27 02:15:28;;;;;;;10.50;6.93;;;8.60;97.30;;;;;;4936928;29;20723;-88
2021/05/27 02:17:55;;;;;;;12.37;7.43;;;8.60;97.30;;;;;;4936826;29;20471;-90
2021/05/27 02:20:21;;;;;;;11.10;7.40;;;8.60;97.30;;;;;;4938290;29;20200;-89
2021/05/27 02:22:47;;;;;;;10.40;7.43;;;8.60;97.30;;;;;;4937753;29;20423;-89
2021/05/27 02:25:13;;;;;;;10.87;7.53;;;8.60;97.30;;;;;;4937357;29;20184;-89
2021/05/27 02:27:38;;;;;;;10.27;6.40;;;8.60;97.30;;;;;;4937559;29;20568;-88
2021/05/27 02:30:05;;;;;;;14.07;8.17;;;8.60;97.30;;;;;;4937118;29;20423;-90
2021/05/27 02:32:31;;;;;;;10.53;7.70;;;8.60;97.30;;;;;;4937345;29;20211;-89
2021/05/27 02:34:57;;;;;;;10.47;7.43;;;8.60;97.30;;;;;;4937817;29;20506;-89
2021/05/27 02:37:22;;;;;;;14.63;7.93;;;8.60;97.30;;;;;;4938011;29;20168;-89
2021/05/27 02:39:48;;;;;;;12.27;7.40;;;8.70;97.30;;;;;;4939206;29;20183;-89
2021/05/27 02:42:13;;;;;;;14.23;7.60;;;8.70;97.30;;;;;;4938333;29;20204;-89
2021/05/27 02:44:39;;;;;;;12.60;8.20;;;8.70;97.30;;;;;;4937767;29;20670;-88
2021/05/27 02:47:04;;;;;;;11.50;7.17;;;8.70;97.30;;;;;;4937089;29;20666;-89
2021/05/27 02:49:30;;;;;;;16.37;8.90;;;8.70;97.30;;;;;;4937336;29;20274;-89
2021/05/27 02:51:55;;;;;;;13.97;7.70;;;8.70;97.30;;;;;;4936197;29;20978;-89
2021/05/27 02:54:21;;;;;;;17.43;7.63;;;8.70;97.30;;;;;;4937925;29;20179;-89
2021/05/27 02:56:46;;;;;;;13.47;7.87;;;8.70;97.30;;;;;;4936280;29;20215;-88
2021/05/27 02:59:12;;;;;;;12.67;8.37;;;8.70;97.30;;;;;;4936730;29;20203;-89
2021/05/27 03:01:37;;;;;;;12.20;8.57;;;8.70;97.30;;;;;;4936484;29;20293;-89
2021/05/27 03:04:03;;;;;;;12.10;7.87;;;8.80;97.30;;;;;;4937758;29;20188;-89
2021/05/27 03:06:36;;;;;;;17.37;8.50;;;8.80;97.30;;;;;;4936682;29;20644;-89
2021/05/27 03:16:41;;;;;;;15.30;8.30;;;8.80;97.30;;;;;;4917320;29;20476;-90
2021/05/27 03:19:23;;;;;;;14.50;8.67;;;8.80;97.30;;;;;;4934334;29;20445;-89
2021/05/27 03:21:48;;;;;;;24.20;8.63;;;8.80;97.30;;;;;;4903136;29;20173;-89
2021/05/27 03:24:14;;;;;;;11.77;7.53;;;8.80;97.30;;;;;;4902077;29;20652;-90
2021/05/27 03:30:22;;;;;;;14.53;8.10;;;8.90;97.30;;;;;;4918690;29;20427;-90
2021/05/27 03:32:52;;;;;;;17.47;8.50;;;8.90;97.30;;;;;;4901169;29;20480;-92
2021/05/27 03:35:17;;;;;;;13.00;8.17;;;8.90;97.30;;;;;;4901150;29;20417;-90
2021/05/27 03:37:45;;;;;;;9.70;7.33;;;8.90;97.30;;;;;;4917451;29;20947;-91
2021/05/27 03:40:12;;;;;;;11.60;8.00;;;8.90;97.30;;;;;;4900611;29;20268;-88
2021/05/27 03:42:47;;;;;;;12.40;8.43;;;8.90;97.30;;;;;;4900554;29;20807;-89
2021/05/27 03:45:15;;;;;;;13.60;8.60;;;8.90;97.30;;;;;;4916758;29;20445;-89
2021/05/27 03:47:41;;;;;;;13.80;8.80;;;8.90;97.30;;;;;;4918442;29;20448;-89
2021/05/27 03:50:09;;;;;;;10.57;7.90;;;8.90;97.30;;;;;;4901668;29;20435;-88
2021/05/27 03:52:38;;;;;;;10.43;7.67;;;9.00;97.30;;;;;;4901600;29;20551;-88
2021/05/27 03:55:10;;;;;;;17.33;8.03;;;9.00;97.30;;;;;;4901589;29;20463;-88
2021/05/27 03:57:36;;;;;;;10.60;6.87;;;9.00;97.30;;;;;;4918249;29;20467;-89
2021/05/27 04:02:49;;;;;;;12.83;8.67;;;9.10;97.30;;;;;;4919134;29;20184;-90
2021/05/27 04:07:59;;;;;;;12.90;8.13;;;9.10;97.30;;;;;;4920310;29;20962;-89
2021/05/27 04:10:26;;;;;;;11.30;7.70;;;9.20;97.30;;;;;;4918553;29;20420;-88
2021/05/27 04:12:52;;;;;;;11.90;7.80;;;9.20;97.30;;;;;;4900856;29;20204;-89
2021/05/27 04:15:21;;;;;;;10.93;7.47;;;9.20;97.30;;;;;;4901446;29;20471;-88
2021/05/27 04:18:11;;;;;;;9.90;6.70;;;9.20;97.30;;;;;;4900686;29;20440;-89
2021/05/27 04:20:38;;;;;;;10.63;7.20;;;9.20;97.30;;;;;;4900349;29;20830;-89
2021/05/27 04:23:07;;;;;;;12.50;8.07;;;9.30;97.30;;;;;;4900503;29;20483;-89
2021/05/27 04:25:32;;;;;;;14.83;7.40;;;9.30;97.30;;;;;;4900296;29;20963;-90
2021/05/27 04:27:59;;;;;;;11.60;8.30;;;9.30;97.30;;;;;;4921491;23;20497;-87
2021/05/27 04:30:27;;;;;;;11.67;7.40;;;9.30;97.30;;;;;;4954197;29;20597;-88
2021/05/27 04:33:01;;;;;;;14.13;8.27;;;9.40;97.30;;;;;;4954072;29;20462;-88
2021/05/27 04:35:40;;;;;;;11.10;7.47;;;9.50;97.30;;;;;;4954193;29;20474;-88
2021/05/27 04:38:11;;;;;;;11.13;7.10;;;9.50;97.30;;;;;;4953862;28;20449;-89
2021/05/27 04:40:39;;;;;;;10.13;6.83;;;9.60;97.30;;;;;;4954141;29;20442;-88
2021/05/27 04:43:05;;;;;;;10.67;7.20;;;9.60;97.30;;;;;;4954709;29;20531;-88
2021/05/27 04:45:31;;;;;;;10.80;8.10;;;9.70;97.30;;;;;;4955173;29;20977;-88
2021/05/27 04:47:57;;;;;;;11.03;7.27;;;9.70;97.30;;;;;;4957317;28;20443;-88
2021/05/27 04:50:24;;;;;;;12.83;7.40;;;9.70;97.30;;;;;;4957282;28;20549;-88
2021/05/27 04:52:51;;;;;;;11.57;7.03;;;9.80;97.30;;;;;;4959317;29;20549;-88
2021/05/27 04:55:17;;;;;;;14.03;8.10;;;9.80;97.30;;;;;;4959550;29;20495;-88
2021/05/27 04:57:43;;;;;;;11.67;7.43;;;9.80;97.30;;;;;;4960227;28;20940;-89
2021/05/27 05:00:15;;;;;;;10.90;7.77;;;9.80;97.30;;;;;;4957877;29;20446;-87
2021/05/27 05:02:40;;;;;;;14.50;7.40;;;9.90;97.30;;;;;;4955288;29;20425;-88
2021/05/27 05:05:08;;;;;;;8.53;6.10;;;9.90;97.30;;;;;;4956574;29;20438;-88
2021/05/27 05:07:34;;;;;;;10.87;6.87;;;9.90;97.30;;;;;;4957926;28;20183;-88
2021/05/27 05:09:59;;;;;;;9.80;7.20;;;9.90;97.30;;;;;;4956882;29;21205;-88
2021/05/27 05:12:25;;;;;;;11.00;7.27;;;9.90;97.30;;;;;;4956796;29;20580;-88
2021/05/27 05:14:50;;;;;;;11.03;7.50;;;10.00;97.30;;;;;;4957057;29;20186;-88
2021/05/27 05:17:16;;;;;;;10.10;7.30;;;10.00;97.30;;;;;;4956888;29;20175;-88
2021/05/27 05:19:41;;;;;;;11.73;7.37;;;10.10;97.30;;;;;;4944912;23;20247;-77
2021/05/27 05:22:07;;;;;;;11.13;7.60;;;10.10;97.30;;;;;;4938676;29;20678;-76
2021/05/27 05:24:36;;;;;;;12.47;7.67;;;10.20;97.30;;;;;;4937781;29;20187;-77
2021/05/27 05:27:02;;;;;;;10.77;7.50;;;10.20;97.30;;;;;;4938996;29;20191;-77
2021/05/27 05:29:28;;;;;;;11.73;7.30;;;10.20;97.30;;;;;;4939194;29;20506;-75
2021/05/27 05:31:54;;;;;;;10.60;6.70;;;10.30;97.30;;;;;;4932732;29;20486;-77
2021/05/27 05:34:19;;;;;;;13.93;7.27;;;10.30;97.30;;;;;;4933492;29;20204;-77
2021/05/27 05:36:45;;;;;;;13.43;7.17;;;10.30;97.30;;;;;;4917581;29;20425;-77
2021/05/27 05:39:11;;;;;;;10.07;6.87;;;10.30;97.30;;;;;;4917587;29;20199;-76
2021/05/27 05:41:38;;;;;;;14.30;8.10;;;10.40;97.30;;;;;;4918041;29;20210;-75
2021/05/27 05:44:04;;;;;;;15.70;8.13;;;10.40;97.30;;;;;;4917999;29;20205;-75
2021/05/27 05:46:30;;;;;;;10.17;7.13;;;10.40;97.30;;;;;;4917021;29;20421;-75
2021/05/27 05:48:55;;;;;;;12.67;7.07;;;10.50;97.30;;;;;;4917272;29;20495;-76
2021/05/27 05:51:21;;;;;;;8.73;6.30;;;10.50;97.30;;;;;;4917986;29;20259;-75
2021/05/27 05:53:47;;;;;;;10.17;7.33;;;10.50;97.30;;;;;;4918186;29;20177;-76
2021/05/27 05:56:12;;;;;;;9.50;6.97;;;10.50;97.30;;;;;;4917172;29;20177;-75
2021/05/27 05:58:38;;;;;;;11.17;7.40;;;10.60;97.30;;;;;;4916703;29;20484;-76
2021/05/27 06:01:04;;;;;;;13.23;6.70;;;10.60;97.30;;;;;;4932445;29;20204;-76
2021/05/27 06:03:32;;;;;;;8.97;7.10;;;10.60;97.30;;;;;;4935486;29;20826;-77
2021/05/27 06:05:58;;;;;;;11.93;6.77;;;10.60;97.30;;;;;;4935885;29;20271;-77
2021/05/27 06:08:23;;;;;;;13.70;7.23;;;10.60;97.30;;;;;;4935329;29;20506;-76
2021/05/27 06:10:49;;;;;;;10.57;6.90;;;10.70;97.30;;;;;;4935955;29;20206;-76
2021/05/27 06:13:14;;;;;;;13.87;6.50;;;10.70;97.30;;;;;;4935591;29;20207;-75
2021/05/27 06:15:42;;;;;;;14.57;7.80;;;10.70;97.30;;;;;;4935262;29;20228;-75
2021/05/27 06:18:07;;;;;;;12.97;7.27;;;10.70;97.30;;;;;;4934277;29;20171;-75
2021/05/27 06:20:33;;;;;;;9.90;6.30;;;10.70;97.30;;;;;;4935753;29;20482;-75
2021/05/27 06:22:59;;;;;;;9.97;6.77;;;10.70;97.30;;;;;;4935436;29;20203;-75
2021/05/27 06:25:26;;;;;;;11.23;7.30;;;10.70;97.30;;;;;;4936466;29;20556;-77
2021/05/27 06:27:52;;;;;;;13.90;7.00;;;10.70;97.30;;;;;;4919021;29;20260;-76
2021/05/27 06:30:19;;;;;;;11.63;6.43;;;10.70;97.30;;;;;;4919617;29;20980;-75
2021/05/27 06:32:45;;;;;;;12.43;6.90;;;10.80;97.30;;;;;;4933901;29;20502;-77
2021/05/27 06:35:12;;;;;;;12.63;6.70;;;10.80;97.30;;;;;;4936568;29;20645;-77
2021/05/27 06:37:39;;;;;;;13.30;7.40;;;10.80;97.30;;;;;;4936255;29;20179;-75
2021/05/27 06:40:07;;;;;;;10.43;6.90;;;10.80;97.30;;;;;;4935097;29;20737;-75
2021/05/27 06:42:34;;;;;;;11.27;7.03;;;10.90;97.30;;;;;;4935231;29;20447;-75
2021/05/27 06:44:59;;;;;;;10.37;6.60;;;10.90;97.30;;;;;;4934606;29;21105;-75
2021/05/27 06:47:25;;;;;;;10.13;6.40;;;10.90;97.30;;;;;;4934765;29;20511;-74
2021/05/27 06:49:51;;;;;;;10.10;6.80;;;11.00;97.30;;;;;;4935123;29;20190;-75
2021/05/27 06:52:17;;;;;;;10.07;6.57;;;11.00;97.30;;;;;;4934527;29;20239;-75
2021/05/27 06:54:42;;;;;;;10.67;6.70;;;11.00;97.30;;;;;;4934666;29;20188;-74
2021/05/27 06:57:08;;;;;;;9.93;5.93;;;11.10;97.30;;;;;;4935015;29;20651;-75
2021/05/27 06:59:33;;;;;;;8.33;5.53;;;11.10;97.30;;;;;;4934699;29;20719;-76
2021/05/27 07:01:59;;;;;;;10.93;6.13;;;11.10;97.30;;;;;;4934373;29;20262;-76
2021/05/27 07:04:25;;;;;;;11.30;5.93;;;11.20;97.30;;;;;;4934814;29;20301;-77
2021/05/27 07:06:51;;;;;;;7.33;5.30;;;11.20;97.30;;;;;;4934048;29;20703;-76
2021/05/27 07:09:17;;;;;;;10.67;5.97;;;11.20;97.30;;;;;;4933973;29;20439;-75
2021/05/27 07:11:42;;;;;;;8.53;5.33;;;11.20;97.30;;;;;;4933155;29;20584;-74
2021/05/27 07:14:09;;;;;;;9.30;5.73;;;11.20;97.30;;;;;;4934264;29;20180;-76
2021/05/27 07:16:36;;;;;;;15.40;6.80;;;11.20;97.30;;;;;;4932961;29;20557;-75
2021/05/27 07:19:02;;;;;;;9.57;5.43;;;11.20;97.30;;;;;;4933130;29;20460;-75
2021/05/27 07:21:27;;;;;;;9.07;5.23;;;11.20;97.30;;;;;;4933460;29;20451;-75
2021/05/27 07:23:53;;;;;;;10.70;5.60;;;11.10;97.30;;;;;;4932815;29;20632;-74
2021/05/27 07:26:18;;;;;;;7.70;5.53;;;11.10;97.30;;;;;;4933507;29;20654;-74
2021/05/27 07:28:44;;;;;;;9.07;5.87;;;11.20;97.30;;;;;;4933357;29;20179;-74
2021/05/27 07:31:09;;;;;;;10.23;5.40;;;11.20;97.30;;;;;;4933789;29;20203;-76
2021/05/27 07:33:35;;;;;;;12.30;5.73;;;11.20;97.30;;;;;;4932850;29;20168;-75
2021/05/27 07:36:03;;;;;;;7.47;5.20;;;11.20;97.30;;;;;;4933305;29;20663;-74
2021/05/27 07:38:28;;;;;;;12.20;5.80;;;11.30;97.30;;;;;;4932565;29;20207;-75
2021/05/27 07:40:54;;;;;;;7.60;5.77;;;11.30;97.30;;;;;;4934185;29;20546;-76
2021/05/27 07:43:19;;;;;;;7.90;4.33;;;11.40;97.30;;;;;;4932883;29;20195;-75
2021/05/27 07:45:45;;;;;;;8.80;5.83;;;11.40;97.30;;;;;;4932438;29;20187;-71
2021/05/27 07:48:11;;;;;;;8.57;5.67;;;11.40;97.30;;;;;;4922181;29;20172;-71
2021/05/27 07:50:37;;;;;;;8.20;5.03;;;11.40;97.30;;;;;;4915087;29;20711;-72
2021/05/27 07:53:02;;;;;;;7.10;4.87;;;11.40;97.30;;;;;;4917993;29;20204;-72
2021/05/27 07:55:28;;;;;;;9.60;5.53;;;11.40;97.30;;;;;;4922061;29;20171;-73
2021/05/27 07:57:54;;;;;;;8.53;5.53;;;11.40;97.30;;;;;;4933725;29;20176;-71
2021/05/27 08:00:20;;;;;;;10.87;6.33;;;11.40;97.30;;;;;;4923615;29;20280;-71
2021/05/27 08:02:49;;;;;;;4.17;3.17;;;11.40;97.30;;;;;;4913138;29;20435;-71
2021/05/27 08:05:15;;;;;;;1.77;1.67;;;11.40;97.30;;;;;;4931233;29;20427;-72
2021/05/27 08:07:41;;;;;;;1.90;1.43;;;11.20;97.30;;;;;;4931989;29;20965;-71
2021/05/27 08:10:09;;;;;;;1.93;1.40;;;10.90;97.30;;;;;;4922038;29;20428;-72
2021/05/27 08:12:35;;;;;;;2.10;1.47;;;10.70;97.30;;;;;;4922253;29;20463;-72
2021/05/27 08:15:01;;;;;;;3.63;1.57;;;10.50;97.30;;;;;;4912574;29;20428;-72
2021/05/27 08:17:26;;;;;;;4.60;1.67;;;10.40;97.30;;;;;;4912881;29;20421;-71
2021/05/27 08:19:52;;;;;;;2.23;1.60;;;10.20;97.30;;;;;;4918642;29;20232;-71
2021/05/27 08:22:18;;;;;;;4.67;1.40;;;10.10;97.30;;;;;;4931658;29;20206;-71
2021/05/27 08:24:44;;;;;;;1.70;1.30;;;10.00;97.30;;;;;;4930929;29;20813;-72
2021/05/27 08:27:10;;;;;;;2.87;1.80;;;9.90;97.30;;;;;;4933688;29;20273;-72
2021/05/27 08:29:36;;;;;;;3.40;1.50;;;9.90;97.30;;;;;;4919475;29;20920;-71
2021/05/27 08:32:01;;;;;;;1.53;1.50;;;9.80;97.30;;;;;;4928027;29;20250;-71
2021/05/27 08:34:27;;;;;;;2.33;1.60;;;9.80;97.30;;;;;;4918748;29;20597;-73
2021/05/27 08:36:53;;;;;;;5.73;1.70;;;9.70;97.30;;;;;;4922717;29;20223;-70
2021/05/27 08:39:18;;;;;;;2.77;1.50;;;9.70;97.30;;;;;;4931979;29;20187;-71
2021/05/27 08:41:47;;;;;;;2.60;2.13;;;9.70;97.30;;;;;;4931769;29;20211;-71
2021/05/27 08:44:13;;;;;;;2.77;2.00;;;9.80;97.30;;;;;;4932811;29;20923;-71
2021/05/27 08:46:39;;;;;;;2.30;2.10;;;9.80;97.30;;;;;;4932088;29;20522;-71
2021/05/27 08:49:05;;;;;;;4.60;1.90;;;9.70;97.30;;;;;;4931139;29;20188;-72
2021/05/27 08:51:35;;;;;;;1.93;1.80;;;9.70;97.30;;;;;;4932734;29;20603;-72
2021/05/27 08:54:04;;;;;;;3.17;1.90;;;9.70;97.30;;;;;;4931436;29;20274;-72
2021/05/27 08:56:31;;;;;;;3.97;1.70;;;9.70;97.30;;;;;;4931125;29;20436;-72
2021/05/27 08:58:56;;;;;;;2.53;1.60;;;9.70;97.30;;;;;;4930730;29;20578;-73
2021/05/27 09:01:23;;;;;;;3.00;1.87;;;9.70;97.30;;;;;;4931363;29;20534;-72
2021/05/27 09:03:50;;;;;;;1.57;1.50;;;9.70;97.30;;;;;;4924751;29;20184;-73
2021/05/27 09:06:16;;;;;;;1.80;1.43;;;9.70;97.30;;;;;;4923781;29;20923;-73
2021/05/27 09:08:42;;;;;;;2.97;1.70;;;9.70;97.30;;;;;;4930004;29;20428;-73
2021/05/27 09:11:13;;;;;;;3.30;2.07;;;9.70;97.30;;;;;;4930205;29;20502;-73
2021/05/27 09:14:01;;;;;;;2.67;1.70;;;9.80;97.30;;;;;;4931269;29;20427;-73
2021/05/27 09:16:27;;;;;;;2.60;1.80;;;9.80;97.30;;;;;;4932136;29;20438;-73
2021/05/27 09:18:54;;;;;;;2.23;2.07;;;9.80;97.30;;;;;;4930546;29;20455;-72
2021/05/27 09:21:41;;;;;;;2.80;2.00;;;9.80;97.30;;;;;;4912925;29;20440;-73
2021/05/27 09:24:07;;;;;;;1.80;1.70;;;9.90;97.30;;;;;;4912365;29;20424;-73
2021/05/27 09:26:48;;;;;;;2.07;1.80;;;9.90;97.30;;;;;;4913809;29;20420;-73
2021/05/27 09:29:14;;;;;;;2.93;1.60;;;9.90;97.30;;;;;;4911889;29;20421;-73
2021/05/27 09:31:59;;;;;;;2.67;2.00;;;9.90;97.30;;;;;;4912510;29;20469;-72
2021/05/27 09:34:46;;;;;;;4.07;2.10;;;9.90;97.30;;;;;;4912301;29;20429;-73
2021/05/27 09:37:32;;;;;;;3.10;2.10;;;10.00;97.30;;;;;;4913782;29;20559;-73
2021/05/27 09:39:59;;;;;;;3.47;2.30;;;10.00;97.30;;;;;;4915585;29;20424;-73
2021/05/27 09:42:52;;;;;;;4.70;2.20;;;10.00;97.30;;;;;;4926435;29;20449;-73
2021/05/27 09:45:28;;;;;;;2.17;1.90;;;10.00;97.30;;;;;;4932499;29;20439;-73
2021/05/27 09:48:05;;;;;;;3.60;2.33;;;10.10;97.30;;;;;;4921332;29;20580;-73
2021/05/27 09:50:40;;;;;;;2.40;2.03;;;10.10;97.30;;;;;;4919853;29;20439;-73
2021/05/27 09:53:18;;;;;;;4.53;2.10;;;10.20;97.30;;;;;;4915613;29;20828;-74
2021/05/27 09:55:45;;;;;;;3.07;2.50;;;10.30;97.30;;;;;;4915510;29;20424;-73
2021/05/27 09:58:12;;;;;;;3.43;2.50;;;10.30;97.30;;;;;;4915363;29;20420;-73
2021/05/27 10:00:39;;;;;;;3.17;2.83;;;10.20;97.30;;;;;;4925295;29;20443;-73
2021/05/27 10:03:31;;;;;;;4.80;3.30;;;10.30;97.30;;;;;;4935208;29;20408;-74
2021/05/27 10:06:01;;;;;;;4.13;3.40;;;10.40;97.30;;;;;;4935778;29;20790;-73
2021/05/27 10:08:29;;;;;;;7.00;4.30;;;10.50;97.30;;;;;;4933646;29;20993;-73
2021/05/27 10:10:55;;;;;;;5.40;3.67;;;10.70;97.30;;;;;;4924516;29;20843;-73
2021/05/27 10:13:25;;;;;;;6.67;3.60;;;10.90;97.30;;;;;;4920706;29;20462;-73
2021/05/27 10:15:51;;;;;;;6.50;3.80;;;10.80;97.30;;;;;;4931338;29;20512;-74
2021/05/27 10:18:18;;;;;;;5.40;3.53;;;11.00;97.30;;;;;;4930685;29;20508;-73
2021/05/27 10:20:46;;;;;;;7.00;3.00;;;11.00;97.30;;;;;;4916425;29;20208;-74
2021/05/27 10:23:12;;;;;;;4.00;2.67;;;11.10;97.30;;;;;;4914936;29;20775;-72
2021/05/27 10:25:37;;;;;;;2.83;2.20;;;11.20;97.30;;;;;;4914957;29;20427;-72
2021/05/27 10:28:08;;;;;;;3.13;2.03;;;11.20;97.30;;;;;;4914818;29;20810;-71
2021/05/27 10:30:42;;;;;;;4.13;2.00;;;11.30;97.30;;;;;;4940886;23;20318;-75
2021/05/27 10:33:16;;;;;;;2.10;1.70;;;11.50;97.30;;;;;;4911027;29;20551;-75
2021/05/27 10:36:01;;;;;;;1.70;1.60;;;11.50;97.30;;;;;;4914839;29;20448;-75
2021/05/27 10:38:42;;;;;;;2.40;1.50;;;11.40;97.30;;;;;;4930480;29;20417;-75
2021/05/27 10:41:21;;;;;;;1.70;1.63;;;11.30;97.30;;;;;;4914847;29;20440;-75
2021/05/27 10:44:02;;;;;;;2.03;1.50;;;11.20;97.30;;;;;;4931134;29;20479;-75
2021/05/27 10:46:33;;;;;;;3.20;1.60;;;11.10;97.30;;;;;;4914862;29;20431;-74
2021/05/27 10:48:59;;;;;;;1.90;1.60;;;11.10;97.30;;;;;;4914826;29;20425;-74
2021/05/27 10:51:49;;;;;;;3.00;1.90;;;11.10;97.30;;;;;;4929972;29;20468;-75
2021/05/27 10:54:28;;;;;;;2.57;1.97;;;11.10;97.30;;;;;;4915044;29;20227;-75
2021/05/27 10:56:54;;;;;;;2.40;1.93;;;11.10;97.30;;;;;;4914874;29;20861;-75
2021/05/27 10:59:20;;;;;;;2.13;2.00;;;11.10;97.30;;;;;;4915086;29;20519;-74
2021/05/27 11:01:45;;;;;;;2.20;2.00;;;11.10;97.30;;;;;;4915728;29;20188;-74
2021/05/27 11:04:27;;;;;;;5.40;1.83;;;11.10;97.30;;;;;;4915576;29;20987;-75
2021/05/27 11:07:13;;;;;;;2.40;2.20;;;11.20;97.30;;;;;;4914947;29;20181;-76
2021/05/27 11:09:38;;;;;;;2.70;1.90;;;11.20;97.30;;;;;;4911960;29;20475;-75
2021/05/27 11:12:23;;;;;;;2.10;1.90;;;11.20;97.30;;;;;;4913210;29;21057;-75
2021/05/27 11:15:01;;;;;;;2.30;1.90;;;11.30;97.30;;;;;;4913677;29;20180;-75
2021/05/27 11:17:27;;;;;;;2.87;2.10;;;11.30;97.30;;;;;;4914847;29;20785;-75
2021/05/27 11:25:24;;;;;;;1.97;1.87;;;11.40;97.30;;;;;;4916034;29;20435;-75
2021/05/27 11:27:59;;;;;;;2.87;2.40;;;11.30;97.30;;;;;;4915539;29;20780;-75
2021/05/27 11:30:26;;;;;;;3.70;2.40;;;11.20;97.30;;;;;;4915233;29;20467;-75
2021/05/27 11:32:55;;;;;;;3.17;2.10;;;11.20;97.30;;;;;;4912971;29;20460;-75
2021/05/27 11:35:26;;;;;;;3.50;2.37;;;11.20;97.30;;;;;;4915460;29;20440;-74
2021/05/27 11:37:52;;;;;;;4.93;2.57;;;11.10;97.30;;;;;;4923314;29;20417;-74
2021/05/27 11:40:42;;;;;;;2.60;2.27;;;11.10;97.30;;;;;;4913960;29;20503;-75
2021/05/27 11:43:09;;;;;;;2.77;2.00;;;11.20;97.30;;;;;;4913666;29;20439;-75
2021/05/27 11:45:51;;;;;;;3.00;2.13;;;11.20;97.30;;;;;;4913857;29;20508;-75
2021/05/27 11:48:56;;;;;;;3.67;2.20;;;11.10;97.30;;;;;;4913633;29;20467;-75
2021/05/27 11:51:19;;;;;;;3.03;2.40;;;11.10;97.30;;;;;;4914532;29;20874;-75
2021/05/27 11:53:48;;;;;;;3.00;2.60;;;11.10;97.30;;;;;;4915286;29;20444;-74
2021/05/27 11:56:26;;;;;;;3.43;2.37;;;11.10;97.30;;;;;;4913234;29;21161;-75
2021/05/27 11:58:52;;;;;;;4.93;2.60;;;11.20;97.30;;;;;;4914464;29;20411;-75
2021/05/27 12:01:26;;;;;;;3.27;2.23;;;11.30;97.30;;;;;;4913322;29;20441;-75
2021/05/27 12:04:06;;;;;;;4.10;2.23;;;11.40;97.30;;;;;;4913742;29;20207;-75
2021/05/27 12:07:00;;;;;;;4.47;3.13;;;11.40;97.30;;;;;;4913370;29;21027;-74
2021/05/27 12:09:52;;;;;;;4.40;2.53;;;11.70;97.30;;;;;;4913675;29;20969;-75
2021/05/27 12:12:27;;;;;;;2.50;2.00;;;12.00;97.30;;;;;;4943095;29;20464;-75
2021/05/27 12:14:58;;;;;;;4.00;2.20;;;12.00;97.30;;;;;;4913384;29;20416;-75
2021/05/27 12:17:33;;;;;;;2.63;2.13;;;12.00;97.30;;;;;;4913475;29;20420;-75
2021/05/27 12:20:06;;;;;;;3.10;2.20;;;11.90;97.30;;;;;;4913523;29;20416;-75
2021/05/27 12:23:00;;;;;;;3.00;2.50;;;11.90;97.30;;;;;;4914633;29;20472;-75
2021/05/27 12:25:30;;;;;;;2.70;2.30;;;12.10;97.30;;;;;;4912350;29;20790;-75
2021/05/27 12:28:20;;;;;;;2.90;2.33;;;12.40;97.30;;;;;;4914627;29;20428;-75
2021/05/27 12:30:53;;;;;;;3.40;2.47;;;12.40;97.30;;;;;;4913116;29;20476;-75
2021/05/27 12:33:21;;;;;;;2.07;1.97;;;12.30;97.30;;;;;;4913422;29;20480;-75
2021/05/27 12:35:47;;;;;;;3.93;2.27;;;12.30;97.30;;;;;;4912920;29;20428;-75
2021/05/27 12:38:19;;;;;;;2.57;2.00;;;12.30;97.30;;;;;;4914572;29;20413;-74
2021/05/27 12:40:51;;;;;;;2.47;2.27;;;12.20;97.30;;;;;;4913282;29;20448;-75
2021/05/27 12:43:26;;;;;;;2.70;2.20;;;12.10;97.30;;;;;;4913370;29;20436;-75
2021/05/27 12:45:54;;;;;;;3.13;2.50;;;12.00;97.30;;;;;;4912892;29;20456;-74
2021/05/27 12:48:23;;;;;;;5.03;2.60;;;11.90;97.30;;;;;;4913068;29;20442;-74
2021/05/27 12:51:02;;;;;;;2.10;1.80;;;11.90;97.30;;;;;;4914486;29;20535;-75
2021/05/27 12:53:28;;;;;;;2.50;2.00;;;11.90;97.30;;;;;;4912819;29;20475;-74
2021/05/27 12:55:56;;;;;;;2.67;1.80;;;11.90;97.30;;;;;;4912821;29;20512;-73
2021/05/27 12:58:33;;;;;;;3.00;2.00;;;11.90;97.30;;;;;;4912700;29;20417;-74
2021/05/27 13:01:00;;;;;;;2.53;2.00;;;11.90;97.30;;;;;;4912987;29;20451;-74
2021/05/27 13:03:28;;;;;;;2.10;1.83;;;11.90;97.30;;;;;;4912896;29;20436;-75
2021/05/27 13:06:11;;;;;;;2.43;2.03;;;11.90;97.30;;;;;;4912727;29;20854;-74
2021/05/27 13:08:38;;;;;;;2.20;1.77;;;11.80;97.30;;;;;;4912723;29;20439;-75
2021/05/27 13:11:24;;;;;;;3.03;1.87;;;11.80;97.30;;;;;;4915942;29;20448;-74
2021/05/27 13:13:51;;;;;;;2.33;1.83;;;11.60;97.30;;;;;;4916611;29;20527;-74
2021/05/27 13:16:43;;;;;;;3.47;2.13;;;11.60;97.30;;;;;;4916218;29;20420;-75
2021/05/27 13:19:11;;;;;;;2.27;1.93;;;11.70;97.30;;;;;;4916223;29;20978;-75
2021/05/27 13:21:48;;;;;;;2.83;1.90;;;11.70;97.30;;;;;;4916560;29;20455;-74
2021/05/27 13:24:25;;;;;;;2.43;2.00;;;11.70;97.30;;;;;;4916557;29;20424;-75
2021/05/27 13:27:06;;;;;;;2.30;1.90;;;11.80;97.30;;;;;;4915914;29;20465;-75
2021/05/27 13:29:52;;;;;;;3.07;2.20;;;11.90;97.30;;;;;;4911091;29;20416;-74